sensor_id;sensor_type;location;lat;lon;timestamp;P1;durP1;ratioP1;P2;durP2;ratioP2
26936;SDS011;14495;48.116;11.676;2022-11-03T00:01:41;5.00;;;2.45;;
26936;SDS011;14495;48.116;11.676;2022-11-03T00:04:12;5.90;;;3.08;;
26936;SDS011;14495;48.116;11.676;2022-11-03T00:06:40;4.60;;;2.45;;
26936;SDS011;14495;48.116;11.676;2022-11-03T00:09:08;5.93;;;3.20;;
26936;SDS011;14495;48.116;11.676;2022-11-03T00:11:36;14.30;;;3.00;;
26936;SDS011;14495;48.116;11.676;2022-11-03T00:14:05;8.80;;;3.05;;
26936;SDS011;14495;48.116;11.676;2022-11-03T00:16:33;5.40;;;3.10;;
26936;SDS011;14495;48.116;11.676;2022-11-03T00:18:58;5.30;;;3.05;;
26936;SDS011;14495;48.116;11.676;2022-11-03T00:21:24;7.57;;;3.25;;
26936;SDS011;14495;48.116;11.676;2022-11-03T00:23:49;3.92;;;2.63;;
26936;SDS011;14495;48.116;11.676;2022-11-03T00:26:19;6.72;;;2.92;;
26936;SDS011;14495;48.116;11.676;2022-11-03T00:28:53;8.73;;;3.38;;
26936;SDS011;14495;48.116;11.676;2022-11-03T00:31:27;8.30;;;3.45;;
26936;SDS011;14495;48.116;11.676;2022-11-03T00:33:57;10.30;;;3.72;;
26936;SDS011;14495;48.116;11.676;2022-11-03T00:36:27;11.25;;;3.95;;
26936;SDS011;14495;48.116;11.676;2022-11-03T00:38:54;9.05;;;3.17;;
26936;SDS011;14495;48.116;11.676;2022-11-03T00:41:20;9.90;;;4.10;;
26936;SDS011;14495;48.116;11.676;2022-11-03T00:43:49;9.90;;;3.85;;
26936;SDS011;14495;48.116;11.676;2022-11-03T00:46:16;7.53;;;3.55;;
26936;SDS011;14495;48.116;11.676;2022-11-03T00:48:46;7.50;;;3.40;;
26936;SDS011;14495;48.116;11.676;2022-11-03T00:51:13;11.45;;;4.30;;
26936;SDS011;14495;48.116;11.676;2022-11-03T00:53:46;8.85;;;3.78;;
26936;SDS011;14495;48.116;11.676;2022-11-03T00:56:15;7.07;;;3.40;;
26936;SDS011;14495;48.116;11.676;2022-11-03T00:58:42;10.98;;;3.75;;
26936;SDS011;14495;48.116;11.676;2022-11-03T01:01:11;6.75;;;3.30;;
26936;SDS011;14495;48.116;11.676;2022-11-03T01:03:38;6.90;;;3.80;;
26936;SDS011;14495;48.116;11.676;2022-11-03T01:06:06;11.32;;;3.22;;
26936;SDS011;14495;48.116;11.676;2022-11-03T01:08:52;7.35;;;3.20;;
26936;SDS011;14495;48.116;11.676;2022-11-03T01:11:19;7.35;;;3.25;;
26936;SDS011;14495;48.116;11.676;2022-11-03T01:14:05;7.97;;;3.35;;
26936;SDS011;14495;48.116;11.676;2022-11-03T01:16:30;5.63;;;3.33;;
26936;SDS011;14495;48.116;11.676;2022-11-03T01:18:57;6.40;;;2.95;;
26936;SDS011;14495;48.116;11.676;2022-11-03T01:21:23;5.20;;;3.05;;
26936;SDS011;14495;48.116;11.676;2022-11-03T01:23:48;7.50;;;3.25;;
26936;SDS011;14495;48.116;11.676;2022-11-03T01:26:14;5.95;;;3.72;;
26936;SDS011;14495;48.116;11.676;2022-11-03T01:28:41;8.32;;;3.72;;
26936;SDS011;14495;48.116;11.676;2022-11-03T01:31:09;7.03;;;3.67;;
26936;SDS011;14495;48.116;11.676;2022-11-03T01:33:36;11.38;;;3.40;;
26936;SDS011;14495;48.116;11.676;2022-11-03T01:36:02;10.02;;;3.22;;
26936;SDS011;14495;48.116;11.676;2022-11-03T01:38:31;9.32;;;3.25;;
26936;SDS011;14495;48.116;11.676;2022-11-03T01:40:58;5.97;;;2.58;;
26936;SDS011;14495;48.116;11.676;2022-11-03T01:43:25;11.02;;;3.13;;
26936;SDS011;14495;48.116;11.676;2022-11-03T01:48:40;7.00;;;3.63;;
26936;SDS011;14495;48.116;11.676;2022-11-03T01:51:09;9.65;;;3.30;;
26936;SDS011;14495;48.116;11.676;2022-11-03T01:53:38;5.47;;;2.95;;
26936;SDS011;14495;48.116;11.676;2022-11-03T01:56:07;9.25;;;3.28;;
26936;SDS011;14495;48.116;11.676;2022-11-03T01:58:35;8.05;;;3.15;;
26936;SDS011;14495;48.116;11.676;2022-11-03T02:01:02;6.25;;;2.83;;
26936;SDS011;14495;48.116;11.676;2022-11-03T02:03:31;5.38;;;2.78;;
26936;SDS011;14495;48.116;11.676;2022-11-03T02:06:00;8.63;;;3.08;;
26936;SDS011;14495;48.116;11.676;2022-11-03T02:08:30;5.45;;;2.90;;
26936;SDS011;14495;48.116;11.676;2022-11-03T02:11:00;8.90;;;3.10;;
26936;SDS011;14495;48.116;11.676;2022-11-03T02:13:45;6.88;;;2.70;;
26936;SDS011;14495;48.116;11.676;2022-11-03T02:16:10;9.93;;;3.20;;
26936;SDS011;14495;48.116;11.676;2022-11-03T02:18:36;4.57;;;2.70;;
26936;SDS011;14495;48.116;11.676;2022-11-03T02:21:05;5.47;;;3.17;;
26936;SDS011;14495;48.116;11.676;2022-11-03T02:23:42;7.10;;;3.20;;
26936;SDS011;14495;48.116;11.676;2022-11-03T02:26:15;5.55;;;3.20;;
26936;SDS011;14495;48.116;11.676;2022-11-03T02:28:41;5.38;;;2.65;;
26936;SDS011;14495;48.116;11.676;2022-11-03T02:36:12;8.05;;;3.30;;
26936;SDS011;14495;48.116;11.676;2022-11-03T02:38:46;5.13;;;2.70;;
26936;SDS011;14495;48.116;11.676;2022-11-03T02:41:16;5.30;;;2.88;;
26936;SDS011;14495;48.116;11.676;2022-11-03T02:43:44;5.60;;;2.63;;
26936;SDS011;14495;48.116;11.676;2022-11-03T02:46:13;9.02;;;3.30;;
26936;SDS011;14495;48.116;11.676;2022-11-03T02:48:40;10.40;;;2.90;;
26936;SDS011;14495;48.116;11.676;2022-11-03T02:51:05;5.22;;;3.10;;
26936;SDS011;14495;48.116;11.676;2022-11-03T02:53:32;5.82;;;2.63;;
26936;SDS011;14495;48.116;11.676;2022-11-03T02:56:09;5.35;;;3.08;;
26936;SDS011;14495;48.116;11.676;2022-11-03T02:58:56;5.68;;;3.05;;
26936;SDS011;14495;48.116;11.676;2022-11-03T03:04:10;5.55;;;2.75;;
26936;SDS011;14495;48.116;11.676;2022-11-03T03:06:48;4.43;;;2.63;;
26936;SDS011;14495;48.116;11.676;2022-11-03T03:12:16;5.63;;;2.53;;
26936;SDS011;14495;48.116;11.676;2022-11-03T03:14:44;7.65;;;2.50;;
26936;SDS011;14495;48.116;11.676;2022-11-03T03:20:06;4.93;;;2.67;;
26936;SDS011;14495;48.116;11.676;2022-11-03T03:22:42;7.93;;;3.33;;
26936;SDS011;14495;48.116;11.676;2022-11-03T03:27:47;5.45;;;3.10;;
26936;SDS011;14495;48.116;11.676;2022-11-03T03:30:17;13.70;;;3.22;;
26936;SDS011;14495;48.116;11.676;2022-11-03T03:32:47;6.47;;;3.10;;
26936;SDS011;14495;48.116;11.676;2022-11-03T03:35:17;5.13;;;3.30;;
26936;SDS011;14495;48.116;11.676;2022-11-03T03:37:47;7.50;;;2.83;;
26936;SDS011;14495;48.116;11.676;2022-11-03T03:40:24;6.57;;;3.72;;
26936;SDS011;14495;48.116;11.676;2022-11-03T03:42:54;4.18;;;2.50;;
26936;SDS011;14495;48.116;11.676;2022-11-03T03:45:21;9.15;;;3.03;;
26936;SDS011;14495;48.116;11.676;2022-11-03T03:47:49;5.43;;;3.03;;
26936;SDS011;14495;48.116;11.676;2022-11-03T03:50:15;9.23;;;3.33;;
26936;SDS011;14495;48.116;11.676;2022-11-03T03:52:41;14.25;;;4.00;;
26936;SDS011;14495;48.116;11.676;2022-11-03T03:55:08;11.82;;;3.53;;
26936;SDS011;14495;48.116;11.676;2022-11-03T03:57:40;9.32;;;3.13;;
26936;SDS011;14495;48.116;11.676;2022-11-03T04:00:07;8.15;;;3.00;;
26936;SDS011;14495;48.116;11.676;2022-11-03T04:02:33;6.03;;;2.70;;
26936;SDS011;14495;48.116;11.676;2022-11-03T04:04:59;5.43;;;2.95;;
26936;SDS011;14495;48.116;11.676;2022-11-03T04:07:24;5.53;;;2.83;;
26936;SDS011;14495;48.116;11.676;2022-11-03T04:10:08;8.90;;;3.42;;
26936;SDS011;14495;48.116;11.676;2022-11-03T04:12:34;6.50;;;2.72;;
26936;SDS011;14495;48.116;11.676;2022-11-03T04:15:17;7.88;;;3.50;;
26936;SDS011;14495;48.116;11.676;2022-11-03T04:18:01;4.55;;;2.95;;
26936;SDS011;14495;48.116;11.676;2022-11-03T04:20:46;6.93;;;3.35;;
26936;SDS011;14495;48.116;11.676;2022-11-03T04:23:30;5.13;;;3.00;;
26936;SDS011;14495;48.116;11.676;2022-11-03T04:25:55;14.50;;;3.53;;
26936;SDS011;14495;48.116;11.676;2022-11-03T04:28:21;6.05;;;2.88;;
26936;SDS011;14495;48.116;11.676;2022-11-03T04:30:48;7.82;;;4.00;;
26936;SDS011;14495;48.116;11.676;2022-11-03T04:33:14;10.20;;;4.35;;
26936;SDS011;14495;48.116;11.676;2022-11-03T04:35:45;8.75;;;3.85;;
26936;SDS011;14495;48.116;11.676;2022-11-03T04:40:36;8.68;;;4.95;;
26936;SDS011;14495;48.116;11.676;2022-11-03T04:43:13;9.48;;;4.72;;
26936;SDS011;14495;48.116;11.676;2022-11-03T04:45:41;12.05;;;5.15;;
26936;SDS011;14495;48.116;11.676;2022-11-03T04:48:13;8.95;;;4.72;;
26936;SDS011;14495;48.116;11.676;2022-11-03T04:50:39;8.38;;;4.82;;
26936;SDS011;14495;48.116;11.676;2022-11-03T04:53:10;12.15;;;5.85;;
26936;SDS011;14495;48.116;11.676;2022-11-03T04:55:41;9.70;;;5.43;;
26936;SDS011;14495;48.116;11.676;2022-11-03T04:58:18;12.30;;;6.20;;
26936;SDS011;14495;48.116;11.676;2022-11-03T05:00:44;10.43;;;5.43;;
26936;SDS011;14495;48.116;11.676;2022-11-03T05:03:11;9.20;;;6.00;;
26936;SDS011;14495;48.116;11.676;2022-11-03T05:05:41;10.10;;;5.95;;
26936;SDS011;14495;48.116;11.676;2022-11-03T05:08:07;11.23;;;6.25;;
26936;SDS011;14495;48.116;11.676;2022-11-03T05:10:33;14.40;;;6.20;;
26936;SDS011;14495;48.116;11.676;2022-11-03T05:12:59;17.40;;;6.03;;
26936;SDS011;14495;48.116;11.676;2022-11-03T05:17:59;10.77;;;6.35;;
26936;SDS011;14495;48.116;11.676;2022-11-03T05:20:33;13.38;;;6.18;;
26936;SDS011;14495;48.116;11.676;2022-11-03T05:23:01;11.73;;;6.18;;
26936;SDS011;14495;48.116;11.676;2022-11-03T05:25:39;13.02;;;6.90;;
26936;SDS011;14495;48.116;11.676;2022-11-03T05:28:12;15.18;;;7.47;;
26936;SDS011;14495;48.116;11.676;2022-11-03T05:30:44;13.88;;;6.85;;
26936;SDS011;14495;48.116;11.676;2022-11-03T05:36:13;11.77;;;6.50;;
26936;SDS011;14495;48.116;11.676;2022-11-03T05:38:44;16.25;;;7.03;;
26936;SDS011;14495;48.116;11.676;2022-11-03T05:41:13;14.52;;;7.50;;
26936;SDS011;14495;48.116;11.676;2022-11-03T05:43:45;14.00;;;7.90;;
26936;SDS011;14495;48.116;11.676;2022-11-03T05:46:20;13.75;;;7.00;;
26936;SDS011;14495;48.116;11.676;2022-11-03T05:48:46;13.88;;;7.43;;
26936;SDS011;14495;48.116;11.676;2022-11-03T05:51:20;13.82;;;7.50;;
26936;SDS011;14495;48.116;11.676;2022-11-03T05:53:52;14.43;;;7.70;;
26936;SDS011;14495;48.116;11.676;2022-11-03T05:56:21;22.30;;;7.32;;
26936;SDS011;14495;48.116;11.676;2022-11-03T05:58:49;11.32;;;6.55;;
26936;SDS011;14495;48.116;11.676;2022-11-03T06:03:42;14.88;;;8.07;;
26936;SDS011;14495;48.116;11.676;2022-11-03T06:06:18;14.15;;;7.72;;
26936;SDS011;14495;48.116;11.676;2022-11-03T06:08:52;14.40;;;7.53;;
26936;SDS011;14495;48.116;11.676;2022-11-03T06:11:38;13.13;;;7.43;;
26936;SDS011;14495;48.116;11.676;2022-11-03T06:14:11;22.45;;;7.45;;
26936;SDS011;14495;48.116;11.676;2022-11-03T06:16:42;14.50;;;7.70;;
26936;SDS011;14495;48.116;11.676;2022-11-03T06:19:27;14.45;;;7.32;;
26936;SDS011;14495;48.116;11.676;2022-11-03T06:22:00;11.98;;;6.88;;
26936;SDS011;14495;48.116;11.676;2022-11-03T06:24:30;10.57;;;6.93;;
26936;SDS011;14495;48.116;11.676;2022-11-03T06:26:57;14.52;;;7.47;;
26936;SDS011;14495;48.116;11.676;2022-11-03T06:29:23;20.50;;;7.07;;
26936;SDS011;14495;48.116;11.676;2022-11-03T06:31:49;11.93;;;6.70;;
26936;SDS011;14495;48.116;11.676;2022-11-03T06:34:39;17.52;;;7.35;;
26936;SDS011;14495;48.116;11.676;2022-11-03T06:40:25;15.35;;;7.25;;
26936;SDS011;14495;48.116;11.676;2022-11-03T06:42:43;13.15;;;7.00;;
26936;SDS011;14495;48.116;11.676;2022-11-03T06:45:19;13.73;;;7.20;;
26936;SDS011;14495;48.116;11.676;2022-11-03T06:47:48;16.75;;;6.78;;
26936;SDS011;14495;48.116;11.676;2022-11-03T06:52:51;17.50;;;7.13;;
26936;SDS011;14495;48.116;11.676;2022-11-03T07:00:59;21.42;;;6.70;;
26936;SDS011;14495;48.116;11.676;2022-11-03T07:03:30;11.10;;;6.05;;
26936;SDS011;14495;48.116;11.676;2022-11-03T07:09:00;11.82;;;7.25;;
26936;SDS011;14495;48.116;11.676;2022-11-03T07:11:29;14.23;;;6.70;;
26936;SDS011;14495;48.116;11.676;2022-11-03T07:14:18;10.30;;;6.75;;
26936;SDS011;14495;48.116;11.676;2022-11-03T07:22:03;10.60;;;6.47;;
26936;SDS011;14495;48.116;11.676;2022-11-03T07:24:47;9.98;;;6.10;;
26936;SDS011;14495;48.116;11.676;2022-11-03T07:27:36;9.90;;;5.90;;
26936;SDS011;14495;48.116;11.676;2022-11-03T07:32:39;7.15;;;4.85;;
26936;SDS011;14495;48.116;11.676;2022-11-03T07:37:42;7.65;;;5.30;;
26936;SDS011;14495;48.116;11.676;2022-11-03T07:40:12;8.05;;;5.35;;
26936;SDS011;14495;48.116;11.676;2022-11-03T07:42:41;6.13;;;3.90;;
26936;SDS011;14495;48.116;11.676;2022-11-03T07:45:29;6.28;;;4.30;;
26936;SDS011;14495;48.116;11.676;2022-11-03T07:47:58;6.20;;;4.22;;
26936;SDS011;14495;48.116;11.676;2022-11-03T07:50:31;5.72;;;4.03;;
26936;SDS011;14495;48.116;11.676;2022-11-03T07:53:04;5.15;;;4.00;;
26936;SDS011;14495;48.116;11.676;2022-11-03T07:55:37;6.55;;;4.32;;
26936;SDS011;14495;48.116;11.676;2022-11-03T07:58:11;6.13;;;3.65;;
26936;SDS011;14495;48.116;11.676;2022-11-03T08:00:58;5.47;;;3.42;;
26936;SDS011;14495;48.116;11.676;2022-11-03T08:04:07;8.30;;;4.45;;
26936;SDS011;14495;48.116;11.676;2022-11-03T08:06:16;7.57;;;3.60;;
26936;SDS011;14495;48.116;11.676;2022-11-03T08:08:45;4.97;;;3.65;;
26936;SDS011;14495;48.116;11.676;2022-11-03T08:11:11;6.13;;;4.10;;
26936;SDS011;14495;48.116;11.676;2022-11-03T08:13:39;6.85;;;4.13;;
26936;SDS011;14495;48.116;11.676;2022-11-03T08:16:05;8.32;;;3.97;;
26936;SDS011;14495;48.116;11.676;2022-11-03T08:18:30;4.38;;;3.42;;
26936;SDS011;14495;48.116;11.676;2022-11-03T08:20:56;6.10;;;3.70;;
26936;SDS011;14495;48.116;11.676;2022-11-03T08:23:21;5.43;;;3.42;;
26936;SDS011;14495;48.116;11.676;2022-11-03T08:25:46;8.80;;;3.92;;
26936;SDS011;14495;48.116;11.676;2022-11-03T08:28:12;5.88;;;3.78;;
26936;SDS011;14495;48.116;11.676;2022-11-03T08:30:37;5.57;;;3.75;;
26936;SDS011;14495;48.116;11.676;2022-11-03T08:33:02;6.57;;;3.60;;
26936;SDS011;14495;48.116;11.676;2022-11-03T08:35:28;6.60;;;4.20;;
26936;SDS011;14495;48.116;11.676;2022-11-03T08:37:53;6.93;;;3.83;;
26936;SDS011;14495;48.116;11.676;2022-11-03T08:40:18;5.40;;;3.63;;
26936;SDS011;14495;48.116;11.676;2022-11-03T08:42:44;6.18;;;4.07;;
26936;SDS011;14495;48.116;11.676;2022-11-03T08:45:09;5.85;;;3.97;;
26936;SDS011;14495;48.116;11.676;2022-11-03T08:47:35;4.68;;;3.30;;
26936;SDS011;14495;48.116;11.676;2022-11-03T08:50:02;4.95;;;3.33;;
26936;SDS011;14495;48.116;11.676;2022-11-03T08:52:28;4.88;;;2.67;;
26936;SDS011;14495;48.116;11.676;2022-11-03T08:54:53;3.17;;;2.33;;
26936;SDS011;14495;48.116;11.676;2022-11-03T08:57:18;2.83;;;2.33;;
26936;SDS011;14495;48.116;11.676;2022-11-03T08:59:44;2.33;;;2.00;;
26936;SDS011;14495;48.116;11.676;2022-11-03T09:02:09;4.95;;;3.08;;
26936;SDS011;14495;48.116;11.676;2022-11-03T09:04:34;4.38;;;2.20;;
26936;SDS011;14495;48.116;11.676;2022-11-03T09:07:00;2.45;;;1.85;;
26936;SDS011;14495;48.116;11.676;2022-11-03T09:09:25;4.32;;;2.13;;
26936;SDS011;14495;48.116;11.676;2022-11-03T09:11:50;2.58;;;1.75;;
26936;SDS011;14495;48.116;11.676;2022-11-03T09:14:15;3.60;;;1.92;;
26936;SDS011;14495;48.116;11.676;2022-11-03T09:16:41;2.35;;;1.88;;
26936;SDS011;14495;48.116;11.676;2022-11-03T09:19:06;2.88;;;2.00;;
26936;SDS011;14495;48.116;11.676;2022-11-03T09:21:32;3.90;;;2.45;;
26936;SDS011;14495;48.116;11.676;2022-11-03T09:23:57;3.08;;;2.10;;
26936;SDS011;14495;48.116;11.676;2022-11-03T09:26:24;4.15;;;1.90;;
26936;SDS011;14495;48.116;11.676;2022-11-03T09:28:50;3.15;;;1.95;;
26936;SDS011;14495;48.116;11.676;2022-11-03T09:31:15;2.30;;;1.70;;
26936;SDS011;14495;48.116;11.676;2022-11-03T09:33:41;4.88;;;2.38;;
26936;SDS011;14495;48.116;11.676;2022-11-03T09:36:06;4.85;;;2.20;;
26936;SDS011;14495;48.116;11.676;2022-11-03T09:38:32;4.65;;;2.42;;
26936;SDS011;14495;48.116;11.676;2022-11-03T09:40:57;3.63;;;2.13;;
26936;SDS011;14495;48.116;11.676;2022-11-03T09:43:23;2.75;;;2.17;;
26936;SDS011;14495;48.116;11.676;2022-11-03T09:45:48;5.25;;;2.20;;
26936;SDS011;14495;48.116;11.676;2022-11-03T09:48:14;7.85;;;2.35;;
26936;SDS011;14495;48.116;11.676;2022-11-03T09:50:39;2.95;;;2.30;;
26936;SDS011;14495;48.116;11.676;2022-11-03T09:53:05;3.10;;;2.58;;
26936;SDS011;14495;48.116;11.676;2022-11-03T09:55:30;3.03;;;2.22;;
26936;SDS011;14495;48.116;11.676;2022-11-03T09:58:01;3.85;;;2.33;;
26936;SDS011;14495;48.116;11.676;2022-11-03T10:00:35;6.93;;;2.92;;
26936;SDS011;14495;48.116;11.676;2022-11-03T10:03:00;3.65;;;2.20;;
26936;SDS011;14495;48.116;11.676;2022-11-03T10:05:27;5.05;;;2.63;;
26936;SDS011;14495;48.116;11.676;2022-11-03T10:07:55;4.43;;;2.47;;
26936;SDS011;14495;48.116;11.676;2022-11-03T10:12:50;3.72;;;2.42;;
26936;SDS011;14495;48.116;11.676;2022-11-03T10:15:17;4.57;;;2.25;;
26936;SDS011;14495;48.116;11.676;2022-11-03T10:17:44;3.50;;;2.20;;
26936;SDS011;14495;48.116;11.676;2022-11-03T10:20:14;3.63;;;2.67;;
26936;SDS011;14495;48.116;11.676;2022-11-03T10:22:41;6.33;;;2.47;;
26936;SDS011;14495;48.116;11.676;2022-11-03T10:28:10;5.32;;;2.83;;
26936;SDS011;14495;48.116;11.676;2022-11-03T10:33:32;7.28;;;2.85;;
26936;SDS011;14495;48.116;11.676;2022-11-03T10:36:23;3.92;;;2.50;;
26936;SDS011;14495;48.116;11.676;2022-11-03T10:38:49;7.60;;;3.22;;
26936;SDS011;14495;48.116;11.676;2022-11-03T10:41:16;4.90;;;2.97;;
26936;SDS011;14495;48.116;11.676;2022-11-03T10:43:44;3.58;;;2.50;;
26936;SDS011;14495;48.116;11.676;2022-11-03T10:46:20;6.40;;;2.38;;
26936;SDS011;14495;48.116;11.676;2022-11-03T10:51:44;4.28;;;2.83;;
26936;SDS011;14495;48.116;11.676;2022-11-03T10:54:13;3.55;;;2.63;;
26936;SDS011;14495;48.116;11.676;2022-11-03T10:56:40;2.92;;;2.42;;
26936;SDS011;14495;48.116;11.676;2022-11-03T10:59:17;4.63;;;2.38;;
26936;SDS011;14495;48.116;11.676;2022-11-03T11:01:44;3.10;;;2.35;;
26936;SDS011;14495;48.116;11.676;2022-11-03T11:04:19;3.58;;;2.60;;
26936;SDS011;14495;48.116;11.676;2022-11-03T11:06:44;4.47;;;2.42;;
26936;SDS011;14495;48.116;11.676;2022-11-03T11:09:11;5.88;;;2.92;;
26936;SDS011;14495;48.116;11.676;2022-11-03T11:11:38;3.60;;;2.80;;
26936;SDS011;14495;48.116;11.676;2022-11-03T11:14:31;5.10;;;3.13;;
26936;SDS011;14495;48.116;11.676;2022-11-03T11:16:56;3.42;;;2.53;;
26936;SDS011;14495;48.116;11.676;2022-11-03T11:19:23;5.55;;;3.22;;
26936;SDS011;14495;48.116;11.676;2022-11-03T11:29:56;5.80;;;2.85;;
26936;SDS011;14495;48.116;11.676;2022-11-03T11:35:02;7.03;;;3.40;;
26936;SDS011;14495;48.116;11.676;2022-11-03T11:39:53;5.60;;;3.87;;
26936;SDS011;14495;48.116;11.676;2022-11-03T11:42:19;8.55;;;3.38;;
26936;SDS011;14495;48.116;11.676;2022-11-03T11:44:46;7.53;;;4.00;;
26936;SDS011;14495;48.116;11.676;2022-11-03T11:49:47;8.00;;;4.20;;
26936;SDS011;14495;48.116;11.676;2022-11-03T11:52:13;6.20;;;3.58;;
26936;SDS011;14495;48.116;11.676;2022-11-03T11:54:40;6.97;;;3.92;;
26936;SDS011;14495;48.116;11.676;2022-11-03T11:57:16;6.45;;;3.60;;
26936;SDS011;14495;48.116;11.676;2022-11-03T11:59:44;9.18;;;4.30;;
26936;SDS011;14495;48.116;11.676;2022-11-03T12:02:15;6.75;;;3.80;;
26936;SDS011;14495;48.116;11.676;2022-11-03T12:04:46;7.35;;;4.35;;
26936;SDS011;14495;48.116;11.676;2022-11-03T12:07:12;6.47;;;4.47;;
26936;SDS011;14495;48.116;11.676;2022-11-03T12:09:38;10.02;;;3.72;;
26936;SDS011;14495;48.116;11.676;2022-11-03T12:12:04;7.07;;;4.10;;
26936;SDS011;14495;48.116;11.676;2022-11-03T12:16:58;5.43;;;3.60;;
26936;SDS011;14495;48.116;11.676;2022-11-03T12:19:50;10.63;;;4.25;;
26936;SDS011;14495;48.116;11.676;2022-11-03T12:27:18;9.63;;;3.70;;
26936;SDS011;14495;48.116;11.676;2022-11-03T12:29:52;7.22;;;4.15;;
26936;SDS011;14495;48.116;11.676;2022-11-03T12:32:19;7.65;;;3.90;;
26936;SDS011;14495;48.116;11.676;2022-11-03T12:34:45;6.10;;;3.90;;
26936;SDS011;14495;48.116;11.676;2022-11-03T12:37:11;5.10;;;3.70;;
26936;SDS011;14495;48.116;11.676;2022-11-03T12:39:36;8.80;;;4.55;;
26936;SDS011;14495;48.116;11.676;2022-11-03T12:42:02;7.05;;;3.60;;
26936;SDS011;14495;48.116;11.676;2022-11-03T12:44:27;7.80;;;3.80;;
26936;SDS011;14495;48.116;11.676;2022-11-03T12:46:53;6.18;;;3.92;;
26936;SDS011;14495;48.116;11.676;2022-11-03T12:49:18;7.90;;;4.70;;
26936;SDS011;14495;48.116;11.676;2022-11-03T12:51:43;6.40;;;4.05;;
26936;SDS011;14495;48.116;11.676;2022-11-03T12:54:08;6.28;;;3.65;;
26936;SDS011;14495;48.116;11.676;2022-11-03T12:56:34;6.97;;;4.40;;
26936;SDS011;14495;48.116;11.676;2022-11-03T12:58:59;8.05;;;4.97;;
26936;SDS011;14495;48.116;11.676;2022-11-03T13:01:24;8.73;;;4.13;;
26936;SDS011;14495;48.116;11.676;2022-11-03T13:03:50;7.85;;;5.03;;
26936;SDS011;14495;48.116;11.676;2022-11-03T13:06:15;9.32;;;4.65;;
26936;SDS011;14495;48.116;11.676;2022-11-03T13:08:40;6.75;;;4.60;;
26936;SDS011;14495;48.116;11.676;2022-11-03T13:11:06;8.02;;;5.15;;
26936;SDS011;14495;48.116;11.676;2022-11-03T13:13:49;6.70;;;4.78;;
26936;SDS011;14495;48.116;11.676;2022-11-03T13:16:15;8.45;;;5.15;;
26936;SDS011;14495;48.116;11.676;2022-11-03T13:18:40;9.80;;;5.38;;
26936;SDS011;14495;48.116;11.676;2022-11-03T13:21:05;9.10;;;4.68;;
26936;SDS011;14495;48.116;11.676;2022-11-03T13:23:30;8.82;;;5.80;;
26936;SDS011;14495;48.116;11.676;2022-11-03T13:25:56;10.48;;;5.78;;
26936;SDS011;14495;48.116;11.676;2022-11-03T13:28:21;10.23;;;6.38;;
26936;SDS011;14495;48.116;11.676;2022-11-03T13:30:46;9.68;;;5.63;;
26936;SDS011;14495;48.116;11.676;2022-11-03T13:33:13;8.38;;;5.30;;
26936;SDS011;14495;48.116;11.676;2022-11-03T13:35:38;9.57;;;5.93;;
26936;SDS011;14495;48.116;11.676;2022-11-03T13:38:03;9.65;;;6.45;;
26936;SDS011;14495;48.116;11.676;2022-11-03T13:40:28;9.90;;;5.53;;
26936;SDS011;14495;48.116;11.676;2022-11-03T13:42:54;9.50;;;6.15;;
26936;SDS011;14495;48.116;11.676;2022-11-03T13:45:19;11.95;;;7.00;;
26936;SDS011;14495;48.116;11.676;2022-11-03T13:47:44;12.50;;;7.03;;
26936;SDS011;14495;48.116;11.676;2022-11-03T13:50:10;10.80;;;6.35;;
26936;SDS011;14495;48.116;11.676;2022-11-03T13:52:35;11.45;;;6.93;;
26936;SDS011;14495;48.116;11.676;2022-11-03T13:55:00;12.63;;;7.72;;
26936;SDS011;14495;48.116;11.676;2022-11-03T13:57:25;13.95;;;6.70;;
26936;SDS011;14495;48.116;11.676;2022-11-03T13:59:51;15.05;;;6.80;;
26936;SDS011;14495;48.116;11.676;2022-11-03T14:02:16;13.38;;;7.40;;
26936;SDS011;14495;48.116;11.676;2022-11-03T14:04:42;14.13;;;7.57;;
26936;SDS011;14495;48.116;11.676;2022-11-03T14:07:07;10.30;;;7.03;;
26936;SDS011;14495;48.116;11.676;2022-11-03T14:09:34;12.40;;;8.35;;
26936;SDS011;14495;48.116;11.676;2022-11-03T14:11:59;10.82;;;7.57;;
26936;SDS011;14495;48.116;11.676;2022-11-03T14:14:43;13.55;;;7.82;;
26936;SDS011;14495;48.116;11.676;2022-11-03T14:17:09;12.98;;;7.90;;
26936;SDS011;14495;48.116;11.676;2022-11-03T14:19:34;13.02;;;7.68;;
26936;SDS011;14495;48.116;11.676;2022-11-03T14:22:00;13.82;;;7.47;;
26936;SDS011;14495;48.116;11.676;2022-11-03T14:24:25;15.55;;;7.82;;
26936;SDS011;14495;48.116;11.676;2022-11-03T14:26:50;15.95;;;7.88;;
26936;SDS011;14495;48.116;11.676;2022-11-03T14:29:16;14.30;;;8.13;;
26936;SDS011;14495;48.116;11.676;2022-11-03T14:31:41;14.48;;;8.88;;
26936;SDS011;14495;48.116;11.676;2022-11-03T14:34:06;13.82;;;8.32;;
26936;SDS011;14495;48.116;11.676;2022-11-03T14:36:32;14.65;;;8.55;;
26936;SDS011;14495;48.116;11.676;2022-11-03T14:38:57;16.45;;;8.60;;
26936;SDS011;14495;48.116;11.676;2022-11-03T14:41:23;14.15;;;9.18;;
26936;SDS011;14495;48.116;11.676;2022-11-03T14:44:07;12.70;;;8.70;;
26936;SDS011;14495;48.116;11.676;2022-11-03T14:46:32;16.10;;;9.02;;
26936;SDS011;14495;48.116;11.676;2022-11-03T14:48:57;18.17;;;9.70;;
26936;SDS011;14495;48.116;11.676;2022-11-03T14:51:25;19.02;;;10.02;;
26936;SDS011;14495;48.116;11.676;2022-11-03T14:53:51;16.77;;;9.98;;
26936;SDS011;14495;48.116;11.676;2022-11-03T14:56:16;22.25;;;10.27;;
26936;SDS011;14495;48.116;11.676;2022-11-03T14:58:41;22.00;;;11.63;;
26936;SDS011;14495;48.116;11.676;2022-11-03T15:01:07;17.67;;;10.80;;
26936;SDS011;14495;48.116;11.676;2022-11-03T15:03:33;17.35;;;11.02;;
26936;SDS011;14495;48.116;11.676;2022-11-03T15:05:58;19.83;;;11.38;;
26936;SDS011;14495;48.116;11.676;2022-11-03T15:08:23;18.55;;;10.25;;
26936;SDS011;14495;48.116;11.676;2022-11-03T15:10:49;19.08;;;10.48;;
26936;SDS011;14495;48.116;11.676;2022-11-03T15:13:15;19.98;;;10.88;;
26936;SDS011;14495;48.116;11.676;2022-11-03T15:15:40;23.00;;;11.13;;
26936;SDS011;14495;48.116;11.676;2022-11-03T15:18:06;21.90;;;11.48;;
26936;SDS011;14495;48.116;11.676;2022-11-03T15:20:32;21.83;;;11.00;;
26936;SDS011;14495;48.116;11.676;2022-11-03T15:23:00;21.10;;;10.82;;
26936;SDS011;14495;48.116;11.676;2022-11-03T15:25:29;22.40;;;11.23;;
26936;SDS011;14495;48.116;11.676;2022-11-03T15:27:54;21.73;;;11.10;;
26936;SDS011;14495;48.116;11.676;2022-11-03T15:30:20;19.40;;;11.30;;
26936;SDS011;14495;48.116;11.676;2022-11-03T15:32:45;27.02;;;11.50;;
26936;SDS011;14495;48.116;11.676;2022-11-03T15:35:10;24.33;;;10.70;;
26936;SDS011;14495;48.116;11.676;2022-11-03T15:37:36;21.35;;;11.57;;
26936;SDS011;14495;48.116;11.676;2022-11-03T15:40:02;20.85;;;12.30;;
26936;SDS011;14495;48.116;11.676;2022-11-03T15:42:28;23.85;;;11.80;;
26936;SDS011;14495;48.116;11.676;2022-11-03T15:44:53;20.75;;;10.65;;
26936;SDS011;14495;48.116;11.676;2022-11-03T15:47:18;22.95;;;11.80;;
26936;SDS011;14495;48.116;11.676;2022-11-03T15:49:44;23.75;;;11.77;;
26936;SDS011;14495;48.116;11.676;2022-11-03T15:52:09;24.80;;;12.60;;
26936;SDS011;14495;48.116;11.676;2022-11-03T15:54:34;21.00;;;11.70;;
26936;SDS011;14495;48.116;11.676;2022-11-03T15:57:00;26.33;;;12.05;;
26936;SDS011;14495;48.116;11.676;2022-11-03T15:59:25;26.75;;;12.60;;
26936;SDS011;14495;48.116;11.676;2022-11-03T16:01:50;18.40;;;11.45;;
26936;SDS011;14495;48.116;11.676;2022-11-03T16:04:16;21.95;;;11.23;;
26936;SDS011;14495;48.116;11.676;2022-11-03T16:06:41;22.95;;;12.05;;